Search for airport 
image banner adimage banner adimage banner ad
image banner ad

CYES - Edmundston

Located in , Canada

ICAO - CYES, IATA -

Data provided by Airmate  

General information

Coordinates: N47°29'24" W68°28'54"
Elevation is 498 feet MSL.
Magnetic variation is -17.5833° East
View others Airports in New Brunswick

Operational data

Special qualification required
Current time UTC:
Current local time:
Weather at : KFVE - Northern Aroostook Rgnl ( 26 km )
METAR: KFVE 191053Z AUTO 28015KT 10SM BKN014 OVC024 04/02 A2952 RMK AO2 SLP002 T00440022
TAF: KFVE 190520Z 1906/2006 28010G18KT P6SM SCT015 BKN030 FM191200 28011G19KT P6SM BKN016 FM191600 29012G20KT P6SM VCSH OVC012 FM192300 29008KT P6SM VCSH OVC010 FM200200 29005KT 5SM -SHRA OVC007
View NOTAMs / SUP AIP / TFR affecting this airport [VIEW]
Communications frequencies: [VIEW]

Runways:

RWY identifierQFULength (ft)Width (ft)SurfaceLDA (ft)
16134°456275ASPH4562
34314°456275ASPH4562

Airport contact information

Address: Canada

Satellite view of CYES